Decoded Metar for KRCA (RAPID CITY in SD, USA) (IATA:RCA) | Meteo·Mobile Aviation Weather
aviador You're here:

KRCA Decoded Metar

RAPID CITY in SD, USA
Report Time2018-10-15 19:53:00
UTC Time2018-10-15 20:15:28
Flight Rules vfr VFR
Wind010° at 11 kt
W.Decomp.*RWY 31: 7.2 kt HW 8.3 kt RCW
W.Rank010° ranks 9
Current wind is above 010° avg. (9.9)
Visibility9999 m
Phenomena:N/A
Clouds:Broken 060 Hf
Expected CloudBase > 6,000 ft AGL from Temp-Dew spread
Ceiling6,000 ft
Temp13°C (ISA +4)
Dew Point-2°C (36% RH)
AAT6.8°C
QNH1020 hPa
Density Alt3,652 ft
Elevation3,278 ft
Report Wrong Elevation
Raw Report
SPECI KRCA 151953Z AUTO 01011KT 10SM BKN060 13/M02 A3013 RMK AO2 WSHFT
51 SLP229 $=

Extra information for KRCA:More info

Metar Taf Metar & Taf Last 4 Metars F.Rules Stats Wind Profile Meteogram Temp Stats Airport Information Weather charts Add Link Nearby VenuesMetar ALERT Operation Metar Decoded Social comments

AIRNAV info for KRCA